Главная страница
METAR-TAF:

METAR-TAF

Аэропорты :

Хёугесунн, Норвегия

широта: 59-21N, долгота: 005-13E, высота над уровнем моря: 2 м

Текущие метеонаблюдения

Эта сводка был подготовлена 34 минут назад, в 23:20 UTC
Ветер 4 Узел от восточный
Температура 6°C
Влажность 87%
Давление 1040 hPa
Видимость 10 км и более

METAR: ENHD 172320Z AUTO 10004KT 9999 OVC014/// 06/04 Q1040

Время: 00:54 (23:54 UTC)

Прогноз

Эта сводка был подготовлена 6 часа и 54 минут назад, в 17:00 UTC
Прогноз действительный с 17-го 18 UTC до 17-го 22 UTC
Ветер 5 Узел от юго-восточный
Видимость: 9000 м
небольшая облачность на высоте 1500 фута
Вероятность 30%
С 17-го 18 UTC до 17-го 22 UTC
Видимость: 1500 м
Рассеянная облачность на высоте 400 фута
клочья тумана

TAF: ENHD 171700Z 1718/1722 14005KT 9000 FEW015 PROB30 1718/1722 1500 BCFG BKN004

Метеонаблюдения и прогнозы для более 4000 аэропортов (сводки METAR и TAF).

Имеющиеся станции представлены на карте желтыми и красными точками.

Чтобы увидеть название станции, наведите на нее мышь.

Затем щелкните, чтобы увидеть метеонаблюдения и метеопрогнозы.

Управление картой: чтобы увеличить масштаб, щелкните зеленые кнопки с черным крестиком; чтобы уменьшить масштаб, щелкните зеленую кнопку с тире; для просмотра соседних карт щелкайте зеленые стрелки.


METAR-TAF: